sensor_id;sensor_type;location;lat;lon;timestamp;pressure;altitude;pressure_sealevel;temperature;humidity
61554;BME280;47425;51.976;5.326;2023-07-29T00:00:24;100598.13;;;22.12;57.55
61554;BME280;47425;51.976;5.326;2023-07-29T00:02:52;100594.09;;;22.06;57.92
61554;BME280;47425;51.976;5.326;2023-07-29T00:05:21;100594.53;;;22.00;58.07
61554;BME280;47425;51.976;5.326;2023-07-29T00:07:49;100580.13;;;22.03;58.54
61554;BME280;47425;51.976;5.326;2023-07-29T00:10:16;100577.97;;;22.08;58.22
61554;BME280;47425;51.976;5.326;2023-07-29T00:12:45;100583.47;;;22.18;58.20
61554;BME280;47425;51.976;5.326;2023-07-29T00:15:11;100577.06;;;22.20;57.81
61554;BME280;47425;51.976;5.326;2023-07-29T00:17:38;100576.09;;;22.21;57.67
61554;BME280;47425;51.976;5.326;2023-07-29T00:20:07;100557.53;;;22.20;57.58
61554;BME280;47425;51.976;5.326;2023-07-29T00:22:37;100564.03;;;22.16;57.92
61554;BME280;47425;51.976;5.326;2023-07-29T00:25:08;100576.31;;;22.18;57.79
61554;BME280;47425;51.976;5.326;2023-07-29T00:27:36;100582.44;;;22.32;57.55
61554;BME280;47425;51.976;5.326;2023-07-29T00:30:06;100582.75;;;22.40;57.21
61554;BME280;47425;51.976;5.326;2023-07-29T00:32:35;100583.50;;;22.42;57.37
61554;BME280;47425;51.976;5.326;2023-07-29T00:35:02;100582.75;;;22.40;57.16
61554;BME280;47425;51.976;5.326;2023-07-29T00:37:30;100587.00;;;22.42;57.08
61554;BME280;47425;51.976;5.326;2023-07-29T00:39:58;100593.66;;;22.37;57.52
61554;BME280;47425;51.976;5.326;2023-07-29T00:42:28;100587.06;;;22.29;57.77
61554;BME280;47425;51.976;5.326;2023-07-29T00:44:59;100587.88;;;22.30;57.69
61554;BME280;47425;51.976;5.326;2023-07-29T00:47:35;100589.19;;;22.37;57.49
61554;BME280;47425;51.976;5.326;2023-07-29T00:50:02;100574.53;;;22.43;57.59
61554;BME280;47425;51.976;5.326;2023-07-29T00:52:30;100552.94;;;22.46;57.13
61554;BME280;47425;51.976;5.326;2023-07-29T00:54:57;100551.13;;;22.46;57.38
61554;BME280;47425;51.976;5.326;2023-07-29T00:57:28;100552.94;;;22.46;57.31
61554;BME280;47425;51.976;5.326;2023-07-29T00:59:55;100551.75;;;22.50;57.28
61554;BME280;47425;51.976;5.326;2023-07-29T01:02:22;100560.38;;;22.54;57.00
61554;BME280;47425;51.976;5.326;2023-07-29T01:04:52;100561.78;;;22.46;57.23
61554;BME280;47425;51.976;5.326;2023-07-29T01:07:22;100567.38;;;22.43;57.45
61554;BME280;47425;51.976;5.326;2023-07-29T01:09:55;100560.03;;;22.34;57.32
61554;BME280;47425;51.976;5.326;2023-07-29T01:12:28;100572.81;;;22.42;57.45
61554;BME280;47425;51.976;5.326;2023-07-29T01:15:07;100566.16;;;22.48;57.09
61554;BME280;47425;51.976;5.326;2023-07-29T01:17:43;100557.31;;;22.47;56.95
61554;BME280;47425;51.976;5.326;2023-07-29T01:20:15;100562.19;;;22.53;57.06
61554;BME280;47425;51.976;5.326;2023-07-29T01:22:44;100559.63;;;22.52;57.18
61554;BME280;47425;51.976;5.326;2023-07-29T01:25:16;100566.28;;;22.46;57.28
61554;BME280;47425;51.976;5.326;2023-07-29T01:27:45;100563.88;;;22.43;57.51
61554;BME280;47425;51.976;5.326;2023-07-29T01:30:14;100560.13;;;22.45;57.20
61554;BME280;47425;51.976;5.326;2023-07-29T01:35:31;100561.31;;;22.41;57.78
61554;BME280;47425;51.976;5.326;2023-07-29T01:38:03;100562.69;;;22.34;57.77
61554;BME280;47425;51.976;5.326;2023-07-29T01:40:34;100559.34;;;22.19;58.22
61554;BME280;47425;51.976;5.326;2023-07-29T01:43:04;100559.59;;;22.16;58.39
61554;BME280;47425;51.976;5.326;2023-07-29T01:45:35;100552.97;;;22.09;58.77
61554;BME280;47425;51.976;5.326;2023-07-29T01:48:08;100550.25;;;21.98;59.15
61554;BME280;47425;51.976;5.326;2023-07-29T01:50:34;100548.66;;;21.95;59.12
61554;BME280;47425;51.976;5.326;2023-07-29T01:53:04;100546.34;;;21.90;59.45
61554;BME280;47425;51.976;5.326;2023-07-29T01:55:33;100542.94;;;21.88;59.40
61554;BME280;47425;51.976;5.326;2023-07-29T01:58:02;100549.97;;;21.89;59.35
61554;BME280;47425;51.976;5.326;2023-07-29T02:00:33;100541.97;;;21.89;59.47
61554;BME280;47425;51.976;5.326;2023-07-29T02:03:06;100544.97;;;21.85;59.25
61554;BME280;47425;51.976;5.326;2023-07-29T02:05:33;100541.97;;;21.89;59.28
61554;BME280;47425;51.976;5.326;2023-07-29T02:07:59;100544.75;;;21.88;59.41
61554;BME280;47425;51.976;5.326;2023-07-29T02:10:27;100541.47;;;21.84;59.62
61554;BME280;47425;51.976;5.326;2023-07-29T02:12:54;100543.88;;;21.87;59.51
61554;BME280;47425;51.976;5.326;2023-07-29T02:15:25;100534.09;;;21.88;59.42
61554;BME280;47425;51.976;5.326;2023-07-29T02:17:53;100537.88;;;21.96;58.98
61554;BME280;47425;51.976;5.326;2023-07-29T02:20:20;100539.03;;;22.05;59.02
61554;BME280;47425;51.976;5.326;2023-07-29T02:22:50;100541.81;;;22.04;58.63
61554;BME280;47425;51.976;5.326;2023-07-29T02:25:16;100538.41;;;22.02;59.02
61554;BME280;47425;51.976;5.326;2023-07-29T02:27:46;100540.50;;;21.85;59.12
61554;BME280;47425;51.976;5.326;2023-07-29T02:30:12;100535.28;;;21.84;59.24
61554;BME280;47425;51.976;5.326;2023-07-29T02:32:40;100534.66;;;21.80;59.38
61554;BME280;47425;51.976;5.326;2023-07-29T02:35:08;100528.47;;;21.79;59.54
61554;BME280;47425;51.976;5.326;2023-07-29T02:37:35;100523.47;;;21.75;59.47
61554;BME280;47425;51.976;5.326;2023-07-29T02:40:05;100532.72;;;21.82;59.34
61554;BME280;47425;51.976;5.326;2023-07-29T02:42:33;100528.19;;;21.95;58.76
61554;BME280;47425;51.976;5.326;2023-07-29T02:44:59;100522.38;;;21.90;58.70
61554;BME280;47425;51.976;5.326;2023-07-29T02:47:27;100510.44;;;21.83;59.12
61554;BME280;47425;51.976;5.326;2023-07-29T02:49:55;100517.06;;;21.77;58.92
61554;BME280;47425;51.976;5.326;2023-07-29T02:52:23;100503.34;;;21.71;59.29
61554;BME280;47425;51.976;5.326;2023-07-29T02:54:50;100514.84;;;21.71;59.78
61554;BME280;47425;51.976;5.326;2023-07-29T02:57:18;100525.28;;;21.74;59.57
61554;BME280;47425;51.976;5.326;2023-07-29T02:59:46;100519.84;;;21.76;58.87
61554;BME280;47425;51.976;5.326;2023-07-29T03:02:13;100515.88;;;21.82;59.26
61554;BME280;47425;51.976;5.326;2023-07-29T03:04:41;100507.56;;;21.86;58.93
61554;BME280;47425;51.976;5.326;2023-07-29T03:07:09;100499.84;;;21.94;58.64
61554;BME280;47425;51.976;5.326;2023-07-29T03:09:37;100503.47;;;21.93;58.54
61554;BME280;47425;51.976;5.326;2023-07-29T03:12:09;100504.19;;;21.95;58.56
61554;BME280;47425;51.976;5.326;2023-07-29T03:14:35;100502.78;;;22.03;58.71
61554;BME280;47425;51.976;5.326;2023-07-29T03:17:06;100509.47;;;22.08;58.27
61554;BME280;47425;51.976;5.326;2023-07-29T03:19:35;100511.91;;;22.11;58.31
61554;BME280;47425;51.976;5.326;2023-07-29T03:22:02;100509.88;;;22.15;57.88
61554;BME280;47425;51.976;5.326;2023-07-29T03:24:32;100513.38;;;22.16;57.91
61554;BME280;47425;51.976;5.326;2023-07-29T03:27:03;100518.00;;;22.13;58.17
61554;BME280;47425;51.976;5.326;2023-07-29T03:29:36;100519.91;;;22.11;58.04
61554;BME280;47425;51.976;5.326;2023-07-29T03:32:04;100518.94;;;22.12;58.20
61554;BME280;47425;51.976;5.326;2023-07-29T03:34:30;100513.78;;;21.98;58.41
61554;BME280;47425;51.976;5.326;2023-07-29T03:37:02;100513.06;;;21.96;58.44
61554;BME280;47425;51.976;5.326;2023-07-29T03:39:50;100509.19;;;22.00;58.40
61554;BME280;47425;51.976;5.326;2023-07-29T03:42:23;100520.13;;;22.08;57.98
61554;BME280;47425;51.976;5.326;2023-07-29T03:44:54;100517.31;;;21.99;58.23
61554;BME280;47425;51.976;5.326;2023-07-29T03:47:20;100522.75;;;21.97;58.20
61554;BME280;47425;51.976;5.326;2023-07-29T03:49:51;100515.09;;;21.92;58.29
61554;BME280;47425;51.976;5.326;2023-07-29T03:52:21;100526.16;;;21.99;58.02
61554;BME280;47425;51.976;5.326;2023-07-29T03:54:48;100529.06;;;21.96;58.12
61554;BME280;47425;51.976;5.326;2023-07-29T03:57:17;100522.44;;;21.89;58.50
61554;BME280;47425;51.976;5.326;2023-07-29T03:59:43;100527.22;;;21.96;58.67
61554;BME280;47425;51.976;5.326;2023-07-29T04:02:12;100525.19;;;22.00;58.24
61554;BME280;47425;51.976;5.326;2023-07-29T04:04:39;100522.66;;;21.99;58.33
61554;BME280;47425;51.976;5.326;2023-07-29T04:07:08;100525.13;;;21.89;58.25
61554;BME280;47425;51.976;5.326;2023-07-29T04:09:35;100524.28;;;21.88;57.85
61554;BME280;47425;51.976;5.326;2023-07-29T04:12:07;100517.34;;;21.86;58.27
61554;BME280;47425;51.976;5.326;2023-07-29T04:14:35;100498.81;;;21.84;58.21
61554;BME280;47425;51.976;5.326;2023-07-29T04:17:02;100506.56;;;21.87;58.30
61554;BME280;47425;51.976;5.326;2023-07-29T04:19:30;100508.50;;;21.85;57.75
61554;BME280;47425;51.976;5.326;2023-07-29T04:21:58;100505.22;;;21.82;57.69
61554;BME280;47425;51.976;5.326;2023-07-29T04:24:28;100500.56;;;21.72;56.99
61554;BME280;47425;51.976;5.326;2023-07-29T04:26:54;100510.38;;;21.72;57.84
61554;BME280;47425;51.976;5.326;2023-07-29T04:29:21;100511.22;;;21.72;57.59
61554;BME280;47425;51.976;5.326;2023-07-29T04:31:50;100509.84;;;21.67;57.52
61554;BME280;47425;51.976;5.326;2023-07-29T04:34:19;100518.19;;;21.49;58.22
61554;BME280;47425;51.976;5.326;2023-07-29T04:36:48;100524.38;;;21.37;58.67
61554;BME280;47425;51.976;5.326;2023-07-29T04:39:18;100529.06;;;21.33;58.87
61554;BME280;47425;51.976;5.326;2023-07-29T04:41:44;100524.03;;;21.41;59.40
61554;BME280;47425;51.976;5.326;2023-07-29T04:44:14;100526.16;;;21.49;58.58
61554;BME280;47425;51.976;5.326;2023-07-29T04:46:42;100523.19;;;21.54;58.71
61554;BME280;47425;51.976;5.326;2023-07-29T04:49:12;100523.84;;;21.57;58.69
61554;BME280;47425;51.976;5.326;2023-07-29T04:51:39;100534.25;;;21.60;58.24
61554;BME280;47425;51.976;5.326;2023-07-29T04:54:09;100528.44;;;21.55;57.78
61554;BME280;47425;51.976;5.326;2023-07-29T04:56:35;100531.84;;;21.57;58.07
61554;BME280;47425;51.976;5.326;2023-07-29T04:59:05;100537.91;;;21.59;58.31
61554;BME280;47425;51.976;5.326;2023-07-29T05:01:37;100543.00;;;21.62;57.82
61554;BME280;47425;51.976;5.326;2023-07-29T05:04:06;100549.00;;;21.53;58.45
61554;BME280;47425;51.976;5.326;2023-07-29T05:06:34;100549.19;;;21.50;58.32
61554;BME280;47425;51.976;5.326;2023-07-29T05:09:13;100540.56;;;21.46;59.12
61554;BME280;47425;51.976;5.326;2023-07-29T05:11:43;100544.44;;;21.55;58.03
61554;BME280;47425;51.976;5.326;2023-07-29T05:14:10;100540.44;;;21.48;58.97
61554;BME280;47425;51.976;5.326;2023-07-29T05:16:37;100545.25;;;21.43;58.83
61554;BME280;47425;51.976;5.326;2023-07-29T05:19:10;100546.00;;;21.45;58.80
61554;BME280;47425;51.976;5.326;2023-07-29T05:21:40;100545.34;;;21.41;58.84
61554;BME280;47425;51.976;5.326;2023-07-29T05:24:10;100546.22;;;21.42;58.78
61554;BME280;47425;51.976;5.326;2023-07-29T05:26:40;100550.78;;;21.53;58.69
61554;BME280;47425;51.976;5.326;2023-07-29T05:29:14;100557.19;;;21.63;58.44
61554;BME280;47425;51.976;5.326;2023-07-29T05:31:47;100556.75;;;21.69;58.49
61554;BME280;47425;51.976;5.326;2023-07-29T05:34:17;100549.06;;;21.77;57.57
61554;BME280;47425;51.976;5.326;2023-07-29T05:36:48;100552.41;;;21.92;57.58
61554;BME280;47425;51.976;5.326;2023-07-29T05:39:18;100549.34;;;21.86;57.62
61554;BME280;47425;51.976;5.326;2023-07-29T05:41:49;100551.66;;;21.66;57.70
61554;BME280;47425;51.976;5.326;2023-07-29T05:44:19;100559.31;;;21.58;57.88
61554;BME280;47425;51.976;5.326;2023-07-29T05:46:46;100556.66;;;21.58;58.57
61554;BME280;47425;51.976;5.326;2023-07-29T05:49:15;100553.03;;;21.59;58.13
61554;BME280;47425;51.976;5.326;2023-07-29T05:51:47;100560.47;;;21.67;58.42
61554;BME280;47425;51.976;5.326;2023-07-29T05:54:15;100541.28;;;21.74;57.34
61554;BME280;47425;51.976;5.326;2023-07-29T05:56:43;100544.56;;;21.78;57.91
61554;BME280;47425;51.976;5.326;2023-07-29T05:59:10;100549.22;;;21.87;57.78
61554;BME280;47425;51.976;5.326;2023-07-29T06:01:36;100558.09;;;21.88;57.45
61554;BME280;47425;51.976;5.326;2023-07-29T06:04:05;100546.13;;;21.93;57.26
61554;BME280;47425;51.976;5.326;2023-07-29T06:06:36;100544.09;;;21.97;57.44
61554;BME280;47425;51.976;5.326;2023-07-29T06:09:05;100542.50;;;21.94;57.34
61554;BME280;47425;51.976;5.326;2023-07-29T06:11:32;100547.84;;;21.94;57.46
61554;BME280;47425;51.976;5.326;2023-07-29T06:13:59;100536.38;;;22.05;57.36
61554;BME280;47425;51.976;5.326;2023-07-29T06:16:25;100559.09;;;22.22;56.87
61554;BME280;47425;51.976;5.326;2023-07-29T06:18:52;100549.44;;;22.21;56.81
61554;BME280;47425;51.976;5.326;2023-07-29T06:21:19;100543.69;;;22.15;56.61
61554;BME280;47425;51.976;5.326;2023-07-29T06:23:46;100555.31;;;22.13;57.13
61554;BME280;47425;51.976;5.326;2023-07-29T06:26:14;100555.44;;;22.12;57.27
61554;BME280;47425;51.976;5.326;2023-07-29T06:28:43;100562.53;;;22.24;57.20
61554;BME280;47425;51.976;5.326;2023-07-29T06:31:09;100556.00;;;22.28;56.54
61554;BME280;47425;51.976;5.326;2023-07-29T06:33:40;100568.97;;;22.33;56.83
61554;BME280;47425;51.976;5.326;2023-07-29T06:36:07;100564.97;;;22.27;56.73
61554;BME280;47425;51.976;5.326;2023-07-29T06:38:38;100558.66;;;22.28;56.80
61554;BME280;47425;51.976;5.326;2023-07-29T06:41:05;100561.06;;;22.20;56.79
61554;BME280;47425;51.976;5.326;2023-07-29T06:43:33;100559.09;;;22.22;57.25
61554;BME280;47425;51.976;5.326;2023-07-29T06:46:01;100557.63;;;22.18;56.83
61554;BME280;47425;51.976;5.326;2023-07-29T06:48:29;100562.13;;;22.18;57.31
61554;BME280;47425;51.976;5.326;2023-07-29T06:50:56;100557.81;;;22.04;57.45
61554;BME280;47425;51.976;5.326;2023-07-29T06:53:25;100561.63;;;22.12;57.41
61554;BME280;47425;51.976;5.326;2023-07-29T06:55:52;100566.16;;;22.23;56.83
61554;BME280;47425;51.976;5.326;2023-07-29T06:58:21;100572.75;;;22.31;56.70
61554;BME280;47425;51.976;5.326;2023-07-29T07:00:56;100573.19;;;22.24;57.20
61554;BME280;47425;51.976;5.326;2023-07-29T07:03:22;100573.34;;;22.10;57.16
61554;BME280;47425;51.976;5.326;2023-07-29T07:05:49;100575.84;;;22.00;57.42
61554;BME280;47425;51.976;5.326;2023-07-29T07:08:19;100569.16;;;21.94;57.79
61554;BME280;47425;51.976;5.326;2023-07-29T07:10:46;100578.44;;;21.89;57.65
61554;BME280;47425;51.976;5.326;2023-07-29T07:13:22;100566.09;;;21.88;58.29
61554;BME280;47425;51.976;5.326;2023-07-29T07:15:49;100572.66;;;21.95;57.86
61554;BME280;47425;51.976;5.326;2023-07-29T07:18:17;100570.28;;;22.03;57.73
61554;BME280;47425;51.976;5.326;2023-07-29T07:20:52;100570.56;;;22.11;57.57
61554;BME280;47425;51.976;5.326;2023-07-29T07:23:19;100576.44;;;22.17;58.04
61554;BME280;47425;51.976;5.326;2023-07-29T07:25:47;100567.34;;;22.19;57.39
61554;BME280;47425;51.976;5.326;2023-07-29T07:28:14;100577.72;;;22.48;57.09
61554;BME280;47425;51.976;5.326;2023-07-29T07:30:41;100575.47;;;22.66;56.65
61554;BME280;47425;51.976;5.326;2023-07-29T07:33:07;100578.91;;;22.79;56.37
61554;BME280;47425;51.976;5.326;2023-07-29T07:35:36;100582.22;;;22.94;56.06
61554;BME280;47425;51.976;5.326;2023-07-29T07:38:04;100585.13;;;23.03;55.55
61554;BME280;47425;51.976;5.326;2023-07-29T07:40:33;100588.91;;;23.00;55.98
61554;BME280;47425;51.976;5.326;2023-07-29T07:42:59;100590.25;;;23.06;55.49
61554;BME280;47425;51.976;5.326;2023-07-29T07:45:29;100585.09;;;23.16;55.19
61554;BME280;47425;51.976;5.326;2023-07-29T07:47:58;100589.06;;;23.10;55.78
61554;BME280;47425;51.976;5.326;2023-07-29T07:50:29;100590.25;;;23.06;55.23
61554;BME280;47425;51.976;5.326;2023-07-29T07:53:00;100596.00;;;23.12;55.41
61554;BME280;47425;51.976;5.326;2023-07-29T07:55:31;100592.97;;;23.17;55.75
61554;BME280;47425;51.976;5.326;2023-07-29T07:57:58;100605.25;;;23.31;55.13
61554;BME280;47425;51.976;5.326;2023-07-29T08:00:27;100601.94;;;23.16;55.47
61554;BME280;47425;51.976;5.326;2023-07-29T08:02:58;100595.53;;;23.19;55.58
61554;BME280;47425;51.976;5.326;2023-07-29T08:05:26;100592.97;;;23.17;56.05
61554;BME280;47425;51.976;5.326;2023-07-29T08:07:53;100596.59;;;23.16;55.64
61554;BME280;47425;51.976;5.326;2023-07-29T08:10:21;100599.91;;;23.20;55.62
61554;BME280;47425;51.976;5.326;2023-07-29T08:12:48;100599.91;;;23.31;55.31
61554;BME280;47425;51.976;5.326;2023-07-29T08:15:14;100594.69;;;23.29;55.42
61554;BME280;47425;51.976;5.326;2023-07-29T08:17:42;100590.59;;;23.37;55.24
61554;BME280;47425;51.976;5.326;2023-07-29T08:20:12;100595.19;;;23.35;55.22
61554;BME280;47425;51.976;5.326;2023-07-29T08:22:39;100597.88;;;23.46;54.61
61554;BME280;47425;51.976;5.326;2023-07-29T08:25:06;100598.97;;;23.43;54.71
61554;BME280;47425;51.976;5.326;2023-07-29T08:27:34;100602.47;;;23.44;54.74
61554;BME280;47425;51.976;5.326;2023-07-29T08:30:02;100602.47;;;23.44;54.79
61554;BME280;47425;51.976;5.326;2023-07-29T08:32:29;100605.16;;;23.44;54.23
61554;BME280;47425;51.976;5.326;2023-07-29T08:34:56;100607.69;;;23.34;54.68
61554;BME280;47425;51.976;5.326;2023-07-29T08:37:26;100608.28;;;23.26;55.29
61554;BME280;47425;51.976;5.326;2023-07-29T08:39:53;100604.28;;;23.32;54.96
61554;BME280;47425;51.976;5.326;2023-07-29T08:42:23;100601.25;;;23.48;54.74
61554;BME280;47425;51.976;5.326;2023-07-29T08:44:53;100605.63;;;23.60;54.73
61554;BME280;47425;51.976;5.326;2023-07-29T08:47:20;100602.00;;;23.61;54.45
61554;BME280;47425;51.976;5.326;2023-07-29T08:49:50;100607.47;;;23.60;54.27
61554;BME280;47425;51.976;5.326;2023-07-29T08:52:18;100606.97;;;23.77;54.39
61554;BME280;47425;51.976;5.326;2023-07-29T08:54:46;100606.22;;;23.98;53.88
61554;BME280;47425;51.976;5.326;2023-07-29T08:57:16;100610.75;;;23.98;53.56
61554;BME280;47425;51.976;5.326;2023-07-29T08:59:45;100608.44;;;24.04;53.71
61554;BME280;47425;51.976;5.326;2023-07-29T09:02:13;100611.81;;;24.06;53.07
61554;BME280;47425;51.976;5.326;2023-07-29T09:04:40;100603.03;;;24.16;53.11
61554;BME280;47425;51.976;5.326;2023-07-29T09:07:09;100602.53;;;24.22;53.04
61554;BME280;47425;51.976;5.326;2023-07-29T09:09:38;100597.66;;;24.27;53.29
61554;BME280;47425;51.976;5.326;2023-07-29T09:12:05;100601.66;;;24.33;52.61
61554;BME280;47425;51.976;5.326;2023-07-29T09:14:34;100612.03;;;24.26;52.94
61554;BME280;47425;51.976;5.326;2023-07-29T09:17:01;100602.59;;;24.43;52.29
61554;BME280;47425;51.976;5.326;2023-07-29T09:19:32;100595.13;;;24.58;52.45
61554;BME280;47425;51.976;5.326;2023-07-29T09:22:01;100599.75;;;24.67;51.83
61554;BME280;47425;51.976;5.326;2023-07-29T09:24:27;100608.25;;;24.72;51.87
61554;BME280;47425;51.976;5.326;2023-07-29T09:26:55;100603.72;;;24.73;51.98
61554;BME280;47425;51.976;5.326;2023-07-29T09:29:28;100603.72;;;24.61;51.71
61554;BME280;47425;51.976;5.326;2023-07-29T09:32:17;100601.84;;;24.52;52.10
61554;BME280;47425;51.976;5.326;2023-07-29T09:34:51;100597.06;;;24.56;51.85
61554;BME280;47425;51.976;5.326;2023-07-29T09:37:23;100608.09;;;24.74;51.90
61554;BME280;47425;51.976;5.326;2023-07-29T09:39:51;100593.66;;;24.86;50.91
61554;BME280;47425;51.976;5.326;2023-07-29T09:42:18;100594.59;;;24.96;50.71
61554;BME280;47425;51.976;5.326;2023-07-29T09:44:46;100601.06;;;24.94;50.81
61554;BME280;47425;51.976;5.326;2023-07-29T09:47:21;100590.47;;;24.71;50.91
61554;BME280;47425;51.976;5.326;2023-07-29T09:49:51;100596.66;;;24.72;51.24
61554;BME280;47425;51.976;5.326;2023-07-29T09:52:19;100601.38;;;24.79;51.12
61554;BME280;47425;51.976;5.326;2023-07-29T09:54:48;100596.34;;;24.86;51.15
61554;BME280;47425;51.976;5.326;2023-07-29T09:57:16;100591.97;;;24.85;51.51
61554;BME280;47425;51.976;5.326;2023-07-29T09:59:43;100602.50;;;24.98;51.01
61554;BME280;47425;51.976;5.326;2023-07-29T10:02:15;100599.47;;;25.12;51.00
61554;BME280;47425;51.976;5.326;2023-07-29T10:04:46;100605.13;;;25.19;50.61
61554;BME280;47425;51.976;5.326;2023-07-29T10:07:15;100597.56;;;25.24;50.53
61554;BME280;47425;51.976;5.326;2023-07-29T10:09:43;100601.34;;;25.22;50.19
61554;BME280;47425;51.976;5.326;2023-07-29T10:12:11;100596.72;;;25.24;50.17
61554;BME280;47425;51.976;5.326;2023-07-29T10:14:45;100597.31;;;25.27;49.86
61554;BME280;47425;51.976;5.326;2023-07-29T10:17:16;100599.84;;;25.29;50.33
61554;BME280;47425;51.976;5.326;2023-07-29T10:19:46;100596.59;;;25.25;50.28
61554;BME280;47425;51.976;5.326;2023-07-29T10:22:28;100601.28;;;25.33;50.01
61554;BME280;47425;51.976;5.326;2023-07-29T10:25:01;100596.81;;;25.43;50.32
61554;BME280;47425;51.976;5.326;2023-07-29T10:27:35;100600.91;;;25.38;50.33
61554;BME280;47425;51.976;5.326;2023-07-29T10:30:12;100607.84;;;25.40;50.46
61554;BME280;47425;51.976;5.326;2023-07-29T10:32:48;100604.06;;;25.53;50.32
61554;BME280;47425;51.976;5.326;2023-07-29T10:35:18;100598.47;;;25.56;49.31
61554;BME280;47425;51.976;5.326;2023-07-29T10:37:46;100609.41;;;25.43;50.04
61554;BME280;47425;51.976;5.326;2023-07-29T10:40:16;100612.16;;;25.32;49.93
61554;BME280;47425;51.976;5.326;2023-07-29T10:42:59;100608.63;;;25.10;50.31
61554;BME280;47425;51.976;5.326;2023-07-29T10:45:36;100599.28;;;24.83;50.42
61554;BME280;47425;51.976;5.326;2023-07-29T10:48:06;100608.25;;;24.72;50.65
61554;BME280;47425;51.976;5.326;2023-07-29T10:50:34;100608.47;;;24.69;51.45
61554;BME280;47425;51.976;5.326;2023-07-29T10:53:02;100610.09;;;24.60;50.51
61554;BME280;47425;51.976;5.326;2023-07-29T10:55:30;100610.97;;;24.50;51.37
61554;BME280;47425;51.976;5.326;2023-07-29T10:58:11;100614.78;;;24.36;50.88
61554;BME280;47425;51.976;5.326;2023-07-29T11:00:42;100614.19;;;24.32;52.35
61554;BME280;47425;51.976;5.326;2023-07-29T11:03:09;100611.81;;;24.18;51.35
61554;BME280;47425;51.976;5.326;2023-07-29T11:05:47;100613.25;;;24.10;52.75
61554;BME280;47425;51.976;5.326;2023-07-29T11:08:25;100620.69;;;24.07;53.69
61554;BME280;47425;51.976;5.326;2023-07-29T11:11:06;100622.06;;;24.01;53.95
61554;BME280;47425;51.976;5.326;2023-07-29T11:13:36;100626.06;;;23.95;54.76
61554;BME280;47425;51.976;5.326;2023-07-29T11:16:04;100619.00;;;23.83;54.91
61554;BME280;47425;51.976;5.326;2023-07-29T11:18:33;100619.59;;;23.75;54.62
61554;BME280;47425;51.976;5.326;2023-07-29T11:21:01;100617.66;;;23.77;55.37
61554;BME280;47425;51.976;5.326;2023-07-29T11:23:35;100617.66;;;23.77;55.31
61554;BME280;47425;51.976;5.326;2023-07-29T11:26:04;100624.22;;;23.85;54.30
61554;BME280;47425;51.976;5.326;2023-07-29T11:28:37;100624.47;;;23.82;55.07
61554;BME280;47425;51.976;5.326;2023-07-29T11:31:04;100616.22;;;23.73;56.00
61554;BME280;47425;51.976;5.326;2023-07-29T11:33:31;100614.38;;;23.62;55.00
61554;BME280;47425;51.976;5.326;2023-07-29T11:36:03;100620.59;;;23.52;56.02
61554;BME280;47425;51.976;5.326;2023-07-29T11:38:31;100623.47;;;23.49;56.94
61554;BME280;47425;51.976;5.326;2023-07-29T11:41:05;100624.31;;;23.26;57.62
61554;BME280;47425;51.976;5.326;2023-07-29T11:43:35;100620.38;;;23.08;57.31
61554;BME280;47425;51.976;5.326;2023-07-29T11:46:01;100626.34;;;23.11;58.10
61554;BME280;47425;51.976;5.326;2023-07-29T11:48:32;100616.47;;;23.12;56.53
61554;BME280;47425;51.976;5.326;2023-07-29T11:51:00;100619.59;;;23.30;56.73
61554;BME280;47425;51.976;5.326;2023-07-29T11:53:30;100626.28;;;23.47;56.10
61554;BME280;47425;51.976;5.326;2023-07-29T11:55:58;100623.13;;;23.65;55.29
61554;BME280;47425;51.976;5.326;2023-07-29T11:58:25;100632.63;;;23.80;55.54
61554;BME280;47425;51.976;5.326;2023-07-29T12:00:52;100629.81;;;23.82;54.96
61554;BME280;47425;51.976;5.326;2023-07-29T12:03:20;100633.63;;;23.90;55.03
61554;BME280;47425;51.976;5.326;2023-07-29T12:05:48;100641.84;;;23.87;56.80
61554;BME280;47425;51.976;5.326;2023-07-29T12:08:15;100622.19;;;23.77;57.10
61554;BME280;47425;51.976;5.326;2023-07-29T12:10:45;100630.31;;;23.87;57.75
61554;BME280;47425;51.976;5.326;2023-07-29T12:13:13;100626.44;;;23.91;56.26
61554;BME280;47425;51.976;5.326;2023-07-29T12:15:40;100621.53;;;24.07;56.04
61554;BME280;47425;51.976;5.326;2023-07-29T12:18:09;100619.41;;;24.34;55.56
61554;BME280;47425;51.976;5.326;2023-07-29T12:20:36;100621.22;;;24.33;56.24
61554;BME280;47425;51.976;5.326;2023-07-29T12:23:05;100611.53;;;24.32;57.53
61554;BME280;47425;51.976;5.326;2023-07-29T12:25:34;100610.63;;;24.43;57.56
61554;BME280;47425;51.976;5.326;2023-07-29T12:28:05;100604.84;;;24.59;55.74
61554;BME280;47425;51.976;5.326;2023-07-29T12:30:41;100610.59;;;24.54;54.86
61554;BME280;47425;51.976;5.326;2023-07-29T12:33:11;100609.75;;;24.54;54.94
61554;BME280;47425;51.976;5.326;2023-07-29T12:35:37;100615.94;;;24.66;54.23
61554;BME280;47425;51.976;5.326;2023-07-29T12:38:05;100612.75;;;24.60;54.22
61554;BME280;47425;51.976;5.326;2023-07-29T12:40:31;100616.53;;;24.58;54.87
61554;BME280;47425;51.976;5.326;2023-07-29T12:42:59;100614.09;;;24.55;53.93
61554;BME280;47425;51.976;5.326;2023-07-29T12:45:37;100615.13;;;24.42;54.62
61554;BME280;47425;51.976;5.326;2023-07-29T12:48:05;100618.06;;;24.39;54.63
61554;BME280;47425;51.976;5.326;2023-07-29T12:50:32;100623.53;;;24.38;54.89
61554;BME280;47425;51.976;5.326;2023-07-29T12:53:01;100624.84;;;24.43;53.61
61554;BME280;47425;51.976;5.326;2023-07-29T12:55:29;100625.34;;;24.37;54.80
61554;BME280;47425;51.976;5.326;2023-07-29T12:58:00;100608.25;;;24.28;54.20
61554;BME280;47425;51.976;5.326;2023-07-29T13:00:30;100608.03;;;24.20;54.89
61554;BME280;47425;51.976;5.326;2023-07-29T13:03:01;100610.94;;;24.17;54.35